sensor_id;sensor_type;location;lat;lon;timestamp;temperature;humidity
7014;DHT22;3547;50.774;12.918;2023-04-24T00:02:29;11.80;99.90
7014;DHT22;3547;50.774;12.918;2023-04-24T00:04:56;11.80;99.90
7014;DHT22;3547;50.774;12.918;2023-04-24T00:10:06;11.90;99.90
7014;DHT22;3547;50.774;12.918;2023-04-24T00:12:32;11.90;99.90
7014;DHT22;3547;50.774;12.918;2023-04-24T00:14:59;11.90;99.90
7014;DHT22;3547;50.774;12.918;2023-04-24T00:17:29;11.80;99.90
7014;DHT22;3547;50.774;12.918;2023-04-24T00:19:55;11.80;99.90
7014;DHT22;3547;50.774;12.918;2023-04-24T00:22:25;11.70;99.90
7014;DHT22;3547;50.774;12.918;2023-04-24T00:24:59;11.70;99.90
7014;DHT22;3547;50.774;12.918;2023-04-24T00:27:25;11.70;99.90
7014;DHT22;3547;50.774;12.918;2023-04-24T00:29:51;11.70;99.90
7014;DHT22;3547;50.774;12.918;2023-04-24T00:32:17;11.80;99.90
7014;DHT22;3547;50.774;12.918;2023-04-24T00:34:43;11.80;99.90
7014;DHT22;3547;50.774;12.918;2023-04-24T00:37:10;11.80;99.90
7014;DHT22;3547;50.774;12.918;2023-04-24T00:39:37;11.80;99.90
7014;DHT22;3547;50.774;12.918;2023-04-24T00:42:03;11.80;99.90
7014;DHT22;3547;50.774;12.918;2023-04-24T00:44:33;11.80;99.90
7014;DHT22;3547;50.774;12.918;2023-04-24T00:47:01;11.80;99.90
7014;DHT22;3547;50.774;12.918;2023-04-24T00:49:27;11.70;99.90
7014;DHT22;3547;50.774;12.918;2023-04-24T00:51:53;11.70;99.90
7014;DHT22;3547;50.774;12.918;2023-04-24T00:54:19;11.70;99.90
7014;DHT22;3547;50.774;12.918;2023-04-24T00:56:48;11.60;99.90
7014;DHT22;3547;50.774;12.918;2023-04-24T00:59:16;11.60;99.90
7014;DHT22;3547;50.774;12.918;2023-04-24T01:01:44;11.70;99.90
7014;DHT22;3547;50.774;12.918;2023-04-24T01:04:12;11.70;99.90
7014;DHT22;3547;50.774;12.918;2023-04-24T01:06:43;11.60;99.90
7014;DHT22;3547;50.774;12.918;2023-04-24T01:09:13;11.50;99.90
7014;DHT22;3547;50.774;12.918;2023-04-24T01:11:41;11.60;99.90
7014;DHT22;3547;50.774;12.918;2023-04-24T01:14:09;11.50;99.90
7014;DHT22;3547;50.774;12.918;2023-04-24T01:16:35;11.50;99.90
7014;DHT22;3547;50.774;12.918;2023-04-24T01:19:05;11.40;99.90
7014;DHT22;3547;50.774;12.918;2023-04-24T01:21:34;11.50;99.90
7014;DHT22;3547;50.774;12.918;2023-04-24T01:24:06;11.40;99.90
7014;DHT22;3547;50.774;12.918;2023-04-24T01:26:32;11.50;99.90
7014;DHT22;3547;50.774;12.918;2023-04-24T01:31:35;11.50;99.90
7014;DHT22;3547;50.774;12.918;2023-04-24T01:34:01;11.50;99.90
7014;DHT22;3547;50.774;12.918;2023-04-24T01:36:28;11.50;99.90
7014;DHT22;3547;50.774;12.918;2023-04-24T01:38:57;11.50;99.90
7014;DHT22;3547;50.774;12.918;2023-04-24T01:41:23;11.40;99.90
7014;DHT22;3547;50.774;12.918;2023-04-24T01:43:50;11.50;99.90
7014;DHT22;3547;50.774;12.918;2023-04-24T01:46:17;11.40;99.90
7014;DHT22;3547;50.774;12.918;2023-04-24T01:48:45;11.40;99.90
7014;DHT22;3547;50.774;12.918;2023-04-24T01:51:11;11.50;99.90
7014;DHT22;3547;50.774;12.918;2023-04-24T01:53:37;11.50;99.90
7014;DHT22;3547;50.774;12.918;2023-04-24T01:56:03;11.40;99.90
7014;DHT22;3547;50.774;12.918;2023-04-24T01:58:30;11.50;99.90
7014;DHT22;3547;50.774;12.918;2023-04-24T02:03:32;11.40;99.90
7014;DHT22;3547;50.774;12.918;2023-04-24T02:05:58;11.40;99.90
7014;DHT22;3547;50.774;12.918;2023-04-24T02:08:25;11.40;99.90
7014;DHT22;3547;50.774;12.918;2023-04-24T02:10:51;11.40;99.90
7014;DHT22;3547;50.774;12.918;2023-04-24T02:13:20;11.40;99.90
7014;DHT22;3547;50.774;12.918;2023-04-24T02:15:46;11.40;99.90
7014;DHT22;3547;50.774;12.918;2023-04-24T02:26:18;11.30;99.90
7014;DHT22;3547;50.774;12.918;2023-04-24T02:28:44;11.30;99.90
7014;DHT22;3547;50.774;12.918;2023-04-24T02:31:10;11.30;99.90
7014;DHT22;3547;50.774;12.918;2023-04-24T02:33:37;11.10;99.90
7014;DHT22;3547;50.774;12.918;2023-04-24T02:36:03;11.20;99.90
7014;DHT22;3547;50.774;12.918;2023-04-24T02:38:29;11.20;99.90
7014;DHT22;3547;50.774;12.918;2023-04-24T02:40:55;11.10;99.90
7014;DHT22;3547;50.774;12.918;2023-04-24T02:43:21;11.10;99.90
7014;DHT22;3547;50.774;12.918;2023-04-24T02:45:48;11.10;99.90
7014;DHT22;3547;50.774;12.918;2023-04-24T02:48:14;11.00;99.90
7014;DHT22;3547;50.774;12.918;2023-04-24T02:54:03;10.90;99.90
7014;DHT22;3547;50.774;12.918;2023-04-24T02:56:30;10.80;99.90
7014;DHT22;3547;50.774;12.918;2023-04-24T02:58:56;10.70;99.90
7014;DHT22;3547;50.774;12.918;2023-04-24T03:01:22;10.70;99.90
7014;DHT22;3547;50.774;12.918;2023-04-24T03:09:00;10.70;99.90
7014;DHT22;3547;50.774;12.918;2023-04-24T03:11:26;10.70;99.90
7014;DHT22;3547;50.774;12.918;2023-04-24T03:16:28;10.70;99.90
7014;DHT22;3547;50.774;12.918;2023-04-24T03:18:54;10.60;99.90
7014;DHT22;3547;50.774;12.918;2023-04-24T03:21:20;10.60;99.90
7014;DHT22;3547;50.774;12.918;2023-04-24T03:28:58;10.50;99.90
7014;DHT22;3547;50.774;12.918;2023-04-24T03:31:25;10.50;99.90
7014;DHT22;3547;50.774;12.918;2023-04-24T03:33:51;10.60;99.90
7014;DHT22;3547;50.774;12.918;2023-04-24T03:36:17;10.60;99.90
7014;DHT22;3547;50.774;12.918;2023-04-24T03:38:45;10.60;99.90
7014;DHT22;3547;50.774;12.918;2023-04-24T03:41:14;10.60;99.90
7014;DHT22;3547;50.774;12.918;2023-04-24T03:46:44;10.50;99.90
7014;DHT22;3547;50.774;12.918;2023-04-24T03:49:10;10.50;99.90
7014;DHT22;3547;50.774;12.918;2023-04-24T03:51:36;10.40;99.90
7014;DHT22;3547;50.774;12.918;2023-04-24T03:54:02;10.40;99.90
7014;DHT22;3547;50.774;12.918;2023-04-24T03:56:29;10.40;99.90
7014;DHT22;3547;50.774;12.918;2023-04-24T03:58:55;10.50;99.90
7014;DHT22;3547;50.774;12.918;2023-04-24T04:01:21;10.50;99.90
7014;DHT22;3547;50.774;12.918;2023-04-24T04:03:48;10.50;99.90
7014;DHT22;3547;50.774;12.918;2023-04-24T04:06:14;10.50;99.90
7014;DHT22;3547;50.774;12.918;2023-04-24T04:08:44;10.50;99.90
7014;DHT22;3547;50.774;12.918;2023-04-24T04:11:10;10.50;99.90
7014;DHT22;3547;50.774;12.918;2023-04-24T04:16:43;10.60;99.90
7014;DHT22;3547;50.774;12.918;2023-04-24T04:19:13;10.60;99.90
7014;DHT22;3547;50.774;12.918;2023-04-24T04:21:40;10.60;99.90
7014;DHT22;3547;50.774;12.918;2023-04-24T04:24:11;10.60;99.90
7014;DHT22;3547;50.774;12.918;2023-04-24T04:26:38;10.60;99.90
7014;DHT22;3547;50.774;12.918;2023-04-24T04:32:27;10.60;99.90
7014;DHT22;3547;50.774;12.918;2023-04-24T04:34:53;10.60;99.90
7014;DHT22;3547;50.774;12.918;2023-04-24T04:37:20;10.60;99.90
7014;DHT22;3547;50.774;12.918;2023-04-24T04:39:46;10.60;99.90
7014;DHT22;3547;50.774;12.918;2023-04-24T04:42:13;10.60;99.90
7014;DHT22;3547;50.774;12.918;2023-04-24T04:44:40;10.60;99.90
7014;DHT22;3547;50.774;12.918;2023-04-24T04:50:29;10.60;99.90
7014;DHT22;3547;50.774;12.918;2023-04-24T04:55:47;10.70;99.90
7014;DHT22;3547;50.774;12.918;2023-04-24T04:58:13;10.70;99.90
7014;DHT22;3547;50.774;12.918;2023-04-24T05:00:40;10.70;99.90
7014;DHT22;3547;50.774;12.918;2023-04-24T05:03:09;10.80;99.90
7014;DHT22;3547;50.774;12.918;2023-04-24T05:05:38;10.90;99.90
7014;DHT22;3547;50.774;12.918;2023-04-24T05:08:07;11.00;99.90
7014;DHT22;3547;50.774;12.918;2023-04-24T05:10:34;11.10;99.90
7014;DHT22;3547;50.774;12.918;2023-04-24T05:13:00;11.20;99.90
7014;DHT22;3547;50.774;12.918;2023-04-24T05:15:26;11.30;99.90
7014;DHT22;3547;50.774;12.918;2023-04-24T05:17:53;11.40;99.90
7014;DHT22;3547;50.774;12.918;2023-04-24T05:20:19;11.50;99.90
7014;DHT22;3547;50.774;12.918;2023-04-24T05:22:45;11.60;99.90
7014;DHT22;3547;50.774;12.918;2023-04-24T05:25:11;11.70;99.90
7014;DHT22;3547;50.774;12.918;2023-04-24T05:27:38;11.70;99.90
7014;DHT22;3547;50.774;12.918;2023-04-24T05:30:05;11.70;99.90
7014;DHT22;3547;50.774;12.918;2023-04-24T05:32:32;11.70;99.90
7014;DHT22;3547;50.774;12.918;2023-04-24T05:40:21;11.70;99.90
7014;DHT22;3547;50.774;12.918;2023-04-24T05:42:47;11.70;99.90
7014;DHT22;3547;50.774;12.918;2023-04-24T05:51:44;11.90;95.90
7014;DHT22;3547;50.774;12.918;2023-04-24T05:57:33;11.90;96.60
7014;DHT22;3547;50.774;12.918;2023-04-24T05:59:59;12.10;97.30
7014;DHT22;3547;50.774;12.918;2023-04-24T06:02:25;12.00;96.40
7014;DHT22;3547;50.774;12.918;2023-04-24T06:04:51;12.00;97.70
7014;DHT22;3547;50.774;12.918;2023-04-24T06:07:18;12.00;99.90
7014;DHT22;3547;50.774;12.918;2023-04-24T06:09:44;12.00;96.00
7014;DHT22;3547;50.774;12.918;2023-04-24T06:15:00;12.20;98.20
7014;DHT22;3547;50.774;12.918;2023-04-24T06:17:28;12.30;96.70
7014;DHT22;3547;50.774;12.918;2023-04-24T06:19:54;12.20;89.40
7014;DHT22;3547;50.774;12.918;2023-04-24T06:22:20;12.20;92.90
7014;DHT22;3547;50.774;12.918;2023-04-24T06:24:47;12.30;91.00
7014;DHT22;3547;50.774;12.918;2023-04-24T06:27:14;12.10;90.20
7014;DHT22;3547;50.774;12.918;2023-04-24T06:29:40;12.10;92.20
7014;DHT22;3547;50.774;12.918;2023-04-24T06:32:06;12.20;90.80
7014;DHT22;3547;50.774;12.918;2023-04-24T06:42:28;12.30;94.80
7014;DHT22;3547;50.774;12.918;2023-04-24T06:44:54;12.30;86.50
7014;DHT22;3547;50.774;12.918;2023-04-24T06:50:16;12.30;89.10
7014;DHT22;3547;50.774;12.918;2023-04-24T06:52:42;12.30;93.10
7014;DHT22;3547;50.774;12.918;2023-04-24T07:03:15;12.40;92.40
7014;DHT22;3547;50.774;12.918;2023-04-24T07:05:42;12.50;92.70
7014;DHT22;3547;50.774;12.918;2023-04-24T07:08:08;12.60;91.30
7014;DHT22;3547;50.774;12.918;2023-04-24T07:10:37;12.50;89.20
7014;DHT22;3547;50.774;12.918;2023-04-24T07:13:03;12.40;88.10
7014;DHT22;3547;50.774;12.918;2023-04-24T07:15:29;12.50;90.20
7014;DHT22;3547;50.774;12.918;2023-04-24T07:17:56;12.50;90.20
7014;DHT22;3547;50.774;12.918;2023-04-24T07:20:22;12.30;81.90
7014;DHT22;3547;50.774;12.918;2023-04-24T07:22:48;12.20;84.70
7014;DHT22;3547;50.774;12.918;2023-04-24T07:25:15;12.40;92.20
7014;DHT22;3547;50.774;12.918;2023-04-24T07:27:47;12.40;85.90
7014;DHT22;3547;50.774;12.918;2023-04-24T07:30:16;12.50;89.50
7014;DHT22;3547;50.774;12.918;2023-04-24T07:32:43;12.50;88.40
7014;DHT22;3547;50.774;12.918;2023-04-24T07:35:11;12.40;92.80
7014;DHT22;3547;50.774;12.918;2023-04-24T07:37:46;12.50;85.90
7014;DHT22;3547;50.774;12.918;2023-04-24T07:40:13;12.40;88.80
7014;DHT22;3547;50.774;12.918;2023-04-24T07:42:39;12.40;88.20
7014;DHT22;3547;50.774;12.918;2023-04-24T07:45:12;12.50;86.60
7014;DHT22;3547;50.774;12.918;2023-04-24T07:47:39;12.60;86.70
7014;DHT22;3547;50.774;12.918;2023-04-24T07:50:05;12.70;80.50
7014;DHT22;3547;50.774;12.918;2023-04-24T07:52:34;12.70;78.30
7014;DHT22;3547;50.774;12.918;2023-04-24T07:55:01;12.70;79.60
7014;DHT22;3547;50.774;12.918;2023-04-24T07:57:28;12.90;82.70
7014;DHT22;3547;50.774;12.918;2023-04-24T07:59:55;13.00;85.70
7014;DHT22;3547;50.774;12.918;2023-04-24T08:02:21;13.10;77.70
7014;DHT22;3547;50.774;12.918;2023-04-24T08:04:55;13.10;82.60
7014;DHT22;3547;50.774;12.918;2023-04-24T08:07:21;13.10;79.70
7014;DHT22;3547;50.774;12.918;2023-04-24T08:09:49;13.10;73.90
7014;DHT22;3547;50.774;12.918;2023-04-24T08:12:15;13.10;78.40
7014;DHT22;3547;50.774;12.918;2023-04-24T08:14:41;13.20;83.40
7014;DHT22;3547;50.774;12.918;2023-04-24T08:17:07;13.20;70.30
7014;DHT22;3547;50.774;12.918;2023-04-24T08:19:34;13.40;72.40
7014;DHT22;3547;50.774;12.918;2023-04-24T08:22:01;13.50;83.90
7014;DHT22;3547;50.774;12.918;2023-04-24T08:24:27;13.60;80.50
7014;DHT22;3547;50.774;12.918;2023-04-24T08:26:53;13.70;76.50
7014;DHT22;3547;50.774;12.918;2023-04-24T08:32:04;13.40;63.50
7014;DHT22;3547;50.774;12.918;2023-04-24T08:45:20;14.00;83.70
7014;DHT22;3547;50.774;12.918;2023-04-24T08:53:07;14.70;71.60
7014;DHT22;3547;50.774;12.918;2023-04-24T08:55:41;14.50;72.70
7014;DHT22;3547;50.774;12.918;2023-04-24T08:58:10;14.60;66.10
7014;DHT22;3547;50.774;12.918;2023-04-24T09:00:39;14.50;62.20
7014;DHT22;3547;50.774;12.918;2023-04-24T09:03:09;14.60;75.10
7014;DHT22;3547;50.774;12.918;2023-04-24T09:05:37;14.90;73.50
7014;DHT22;3547;50.774;12.918;2023-04-24T09:15:51;14.40;52.90
7014;DHT22;3547;50.774;12.918;2023-04-24T09:18:18;14.30;62.20
7014;DHT22;3547;50.774;12.918;2023-04-24T09:21:06;14.40;59.40
7014;DHT22;3547;50.774;12.918;2023-04-24T09:23:33;14.40;63.90
7014;DHT22;3547;50.774;12.918;2023-04-24T09:26:03;14.00;53.60
7014;DHT22;3547;50.774;12.918;2023-04-24T09:28:35;13.80;53.50
7014;DHT22;3547;50.774;12.918;2023-04-24T09:31:19;13.60;50.50
7014;DHT22;3547;50.774;12.918;2023-04-24T09:34:13;13.60;57.10
7014;DHT22;3547;50.774;12.918;2023-04-24T09:36:46;13.60;54.10
7014;DHT22;3547;50.774;12.918;2023-04-24T09:41:55;13.30;51.00
7014;DHT22;3547;50.774;12.918;2023-04-24T09:44:27;13.20;50.30
7014;DHT22;3547;50.774;12.918;2023-04-24T09:46:55;13.10;49.60
7014;DHT22;3547;50.774;12.918;2023-04-24T09:49:28;13.00;50.20
7014;DHT22;3547;50.774;12.918;2023-04-24T09:58:46;13.70;57.70
7014;DHT22;3547;50.774;12.918;2023-04-24T10:01:12;14.10;64.70
7014;DHT22;3547;50.774;12.918;2023-04-24T10:12:01;14.40;66.30
7014;DHT22;3547;50.774;12.918;2023-04-24T10:22:17;14.20;49.70
7014;DHT22;3547;50.774;12.918;2023-04-24T10:24:44;14.40;41.60
7014;DHT22;3547;50.774;12.918;2023-04-24T10:27:11;14.50;40.50
7014;DHT22;3547;50.774;12.918;2023-04-24T10:46:28;15.30;35.90
7014;DHT22;3547;50.774;12.918;2023-04-24T10:48:56;15.10;32.50
7014;DHT22;3547;50.774;12.918;2023-04-24T10:51:23;15.20;34.30
7014;DHT22;3547;50.774;12.918;2023-04-24T10:53:53;15.20;37.30
7014;DHT22;3547;50.774;12.918;2023-04-24T10:56:45;15.20;33.40
7014;DHT22;3547;50.774;12.918;2023-04-24T10:59:27;15.70;37.70
7014;DHT22;3547;50.774;12.918;2023-04-24T11:01:56;16.30;44.20
7014;DHT22;3547;50.774;12.918;2023-04-24T11:04:32;16.90;40.50
7014;DHT22;3547;50.774;12.918;2023-04-24T11:07:06;16.60;32.00
7014;DHT22;3547;50.774;12.918;2023-04-24T11:09:37;16.60;29.60
7014;DHT22;3547;50.774;12.918;2023-04-24T11:15:37;15.10;15.70
7014;DHT22;3547;50.774;12.918;2023-04-24T11:22:13;15.00;18.40
7014;DHT22;3547;50.774;12.918;2023-04-24T11:27:20;14.80;14.10
7014;DHT22;3547;50.774;12.918;2023-04-24T11:30:03;15.10;17.60
7014;DHT22;3547;50.774;12.918;2023-04-24T11:33:04;14.70;10.60
7014;DHT22;3547;50.774;12.918;2023-04-24T11:38:57;14.60;15.50
7014;DHT22;3547;50.774;12.918;2023-04-24T11:41:33;15.00;16.20
7014;DHT22;3547;50.774;12.918;2023-04-24T11:44:06;15.20;16.80
7014;DHT22;3547;50.774;12.918;2023-04-24T11:46:32;15.20;18.10
7014;DHT22;3547;50.774;12.918;2023-04-24T11:48:59;15.40;27.20
7014;DHT22;3547;50.774;12.918;2023-04-24T11:51:28;15.40;19.90
7014;DHT22;3547;50.774;12.918;2023-04-24T11:54:00;16.40;20.30
7014;DHT22;3547;50.774;12.918;2023-04-24T11:56:29;15.70;11.10
7014;DHT22;3547;50.774;12.918;2023-04-24T12:02:24;17.10;24.50
7014;DHT22;3547;50.774;12.918;2023-04-24T12:04:54;17.60;20.20
7014;DHT22;3547;50.774;12.918;2023-04-24T12:07:21;17.60;18.30
7014;DHT22;3547;50.774;12.918;2023-04-24T12:12:28;17.20;15.50
7014;DHT22;3547;50.774;12.918;2023-04-24T12:14:58;16.90;13.20
7014;DHT22;3547;50.774;12.918;2023-04-24T12:17:30;16.80;11.20
7014;DHT22;3547;50.774;12.918;2023-04-24T12:20:29;16.80;11.00
7014;DHT22;3547;50.774;12.918;2023-04-24T12:23:43;16.10;3.50
7014;DHT22;3547;50.774;12.918;2023-04-24T12:26:10;16.10;4.80
7014;DHT22;3547;50.774;12.918;2023-04-24T12:28:39;15.90;2.50
7014;DHT22;3547;50.774;12.918;2023-04-24T12:31:08;15.60;1.80
7014;DHT22;3547;50.774;12.918;2023-04-24T12:33:38;15.50;2.00
7014;DHT22;3547;50.774;12.918;2023-04-24T12:41:21;15.20;3.20
7014;DHT22;3547;50.774;12.918;2023-04-24T12:43:53;15.00;1.00
7014;DHT22;3547;50.774;12.918;2023-04-24T12:46:22;15.10;1.00
7014;DHT22;3547;50.774;12.918;2023-04-24T12:52:15;15.00;1.00
7014;DHT22;3547;50.774;12.918;2023-04-24T12:58:39;17.10;14.10
7014;DHT22;3547;50.774;12.918;2023-04-24T13:01:05;17.10;10.90
7014;DHT22;3547;50.774;12.918;2023-04-24T13:03:36;17.90;5.90
7014;DHT22;3547;50.774;12.918;2023-04-24T13:06:05;18.30;4.50
7014;DHT22;3547;50.774;12.918;2023-04-24T13:08:35;18.50;6.20
7014;DHT22;3547;50.774;12.918;2023-04-24T13:11:21;18.90;8.10
7014;DHT22;3547;50.774;12.918;2023-04-24T13:13:51;17.40;1.00
7014;DHT22;3547;50.774;12.918;2023-04-24T13:16:19;16.70;1.80
7014;DHT22;3547;50.774;12.918;2023-04-24T13:18:46;16.50;3.40
7014;DHT22;3547;50.774;12.918;2023-04-24T13:23:48;16.10;1.00
7014;DHT22;3547;50.774;12.918;2023-04-24T13:31:46;15.50;1.00
7014;DHT22;3547;50.774;12.918;2023-04-24T13:34:18;15.50;1.00
7014;DHT22;3547;50.774;12.918;2023-04-24T13:36:44;14.90;1.00
7014;DHT22;3547;50.774;12.918;2023-04-24T13:39:13;15.80;1.00
7014;DHT22;3547;50.774;12.918;2023-04-24T13:41:39;17.10;5.00
7014;DHT22;3547;50.774;12.918;2023-04-24T13:44:06;17.10;1.00
7014;DHT22;3547;50.774;12.918;2023-04-24T13:46:32;18.20;5.80
7014;DHT22;3547;50.774;12.918;2023-04-24T13:51:34;18.10;4.60
7014;DHT22;3547;50.774;12.918;2023-04-24T13:54:01;18.20;1.30
7014;DHT22;3547;50.774;12.918;2023-04-24T14:02:43;17.80;1.60
7014;DHT22;3547;50.774;12.918;2023-04-24T14:36:40;15.20;1.00
7014;DHT22;3547;50.774;12.918;2023-04-24T14:49:58;14.30;1.00
7014;DHT22;3547;50.774;12.918;2023-04-24T15:19:44;14.00;1.00
7014;DHT22;3547;50.774;12.918;2023-04-24T15:22:11;13.90;1.00
7014;DHT22;3547;50.774;12.918;2023-04-24T16:05:30;12.40;1.00
7014;DHT22;3547;50.774;12.918;2023-04-24T16:07:56;12.50;1.00
7014;DHT22;3547;50.774;12.918;2023-04-24T16:10:22;12.60;1.00
7014;DHT22;3547;50.774;12.918;2023-04-24T16:12:49;12.70;1.00
7014;DHT22;3547;50.774;12.918;2023-04-24T16:15:17;12.70;1.00
7014;DHT22;3547;50.774;12.918;2023-04-24T16:17:43;12.80;1.00
7014;DHT22;3547;50.774;12.918;2023-04-24T16:20:10;12.80;1.00
7014;DHT22;3547;50.774;12.918;2023-04-24T16:22:47;12.90;1.00
7014;DHT22;3547;50.774;12.918;2023-04-24T16:25:14;12.90;1.00
7014;DHT22;3547;50.774;12.918;2023-04-24T16:27:44;12.60;1.00
7014;DHT22;3547;50.774;12.918;2023-04-24T16:30:23;12.40;1.00
7014;DHT22;3547;50.774;12.918;2023-04-24T16:33:06;12.30;1.00
7014;DHT22;3547;50.774;12.918;2023-04-24T16:35:39;12.10;1.00
7014;DHT22;3547;50.774;12.918;2023-04-24T16:38:06;12.00;1.00
7014;DHT22;3547;50.774;12.918;2023-04-24T16:43:23;11.70;1.00
7014;DHT22;3547;50.774;12.918;2023-04-24T16:49:18;11.00;9.60
7014;DHT22;3547;50.774;12.918;2023-04-24T16:51:44;11.80;26.70
7014;DHT22;3547;50.774;12.918;2023-04-24T16:54:10;12.80;44.10
7014;DHT22;3547;50.774;12.918;2023-04-24T16:56:37;12.90;31.60
7014;DHT22;3547;50.774;12.918;2023-04-24T16:59:03;12.60;22.30
7014;DHT22;3547;50.774;12.918;2023-04-24T17:01:29;12.20;18.40
7014;DHT22;3547;50.774;12.918;2023-04-24T17:20:16;11.00;15.10
7014;DHT22;3547;50.774;12.918;2023-04-24T17:22:43;11.00;10.20
7014;DHT22;3547;50.774;12.918;2023-04-24T17:25:12;10.90;10.20
7014;DHT22;3547;50.774;12.918;2023-04-24T17:27:41;10.90;12.00
7014;DHT22;3547;50.774;12.918;2023-04-24T17:30:08;10.80;11.70
7014;DHT22;3547;50.774;12.918;2023-04-24T17:32:39;10.90;16.40
7014;DHT22;3547;50.774;12.918;2023-04-24T17:35:12;10.90;12.80
7014;DHT22;3547;50.774;12.918;2023-04-24T17:37:42;10.90;11.30
7014;DHT22;3547;50.774;12.918;2023-04-24T17:40:08;10.80;11.50
7014;DHT22;3547;50.774;12.918;2023-04-24T17:42:35;10.70;11.70
7014;DHT22;3547;50.774;12.918;2023-04-24T18:22:58;9.80;20.70
7014;DHT22;3547;50.774;12.918;2023-04-24T18:29:04;9.80;20.20
7014;DHT22;3547;50.774;12.918;2023-04-24T18:31:32;9.80;19.70
7014;DHT22;3547;50.774;12.918;2023-04-24T18:33:58;9.70;18.70
7014;DHT22;3547;50.774;12.918;2023-04-24T18:36:28;9.60;18.00
7014;DHT22;3547;50.774;12.918;2023-04-24T18:38:59;9.50;17.00
7014;DHT22;3547;50.774;12.918;2023-04-24T18:45:00;9.40;17.10
7014;DHT22;3547;50.774;12.918;2023-04-24T18:50:06;9.20;15.80
7014;DHT22;3547;50.774;12.918;2023-04-24T18:52:49;9.20;16.10
7014;DHT22;3547;50.774;12.918;2023-04-24T18:55:24;9.20;16.70
7014;DHT22;3547;50.774;12.918;2023-04-24T18:57:50;9.20;17.40
7014;DHT22;3547;50.774;12.918;2023-04-24T19:06:24;9.20;17.60
7014;DHT22;3547;50.774;12.918;2023-04-24T19:08:51;9.20;17.80
7014;DHT22;3547;50.774;12.918;2023-04-24T19:14:04;9.30;18.60
7014;DHT22;3547;50.774;12.918;2023-04-24T19:16:32;9.30;18.60
7014;DHT22;3547;50.774;12.918;2023-04-24T19:18:58;9.40;16.60
7014;DHT22;3547;50.774;12.918;2023-04-24T19:21:28;9.30;18.70
7014;DHT22;3547;50.774;12.918;2023-04-24T19:24:12;9.20;18.00
7014;DHT22;3547;50.774;12.918;2023-04-24T19:29:30;9.20;17.30
7014;DHT22;3547;50.774;12.918;2023-04-24T19:31:59;9.10;17.00
7014;DHT22;3547;50.774;12.918;2023-04-24T19:34:29;9.10;17.90
7014;DHT22;3547;50.774;12.918;2023-04-24T19:36:56;9.00;16.70
7014;DHT22;3547;50.774;12.918;2023-04-24T19:39:23;9.00;17.10
7014;DHT22;3547;50.774;12.918;2023-04-24T19:41:49;8.90;17.50
7014;DHT22;3547;50.774;12.918;2023-04-24T19:44:15;8.90;16.60
7014;DHT22;3547;50.774;12.918;2023-04-24T19:46:55;8.90;17.60
7014;DHT22;3547;50.774;12.918;2023-04-24T19:49:22;8.80;18.30
7014;DHT22;3547;50.774;12.918;2023-04-24T19:51:48;8.80;17.90
7014;DHT22;3547;50.774;12.918;2023-04-24T19:54:14;8.80;17.80
7014;DHT22;3547;50.774;12.918;2023-04-24T20:00:06;8.90;18.30
7014;DHT22;3547;50.774;12.918;2023-04-24T20:02:33;8.80;18.70
7014;DHT22;3547;50.774;12.918;2023-04-24T20:04:59;8.80;19.40
7014;DHT22;3547;50.774;12.918;2023-04-24T20:07:25;8.80;19.20
7014;DHT22;3547;50.774;12.918;2023-04-24T20:09:51;8.90;19.90
7014;DHT22;3547;50.774;12.918;2023-04-24T20:12:17;8.90;19.60
7014;DHT22;3547;50.774;12.918;2023-04-24T20:14:46;8.90;18.50
7014;DHT22;3547;50.774;12.918;2023-04-24T20:17:13;8.90;20.20
7014;DHT22;3547;50.774;12.918;2023-04-24T20:19:39;8.90;19.70
7014;DHT22;3547;50.774;12.918;2023-04-24T20:22:06;8.90;19.10
7014;DHT22;3547;50.774;12.918;2023-04-24T20:27:11;8.80;21.20
7014;DHT22;3547;50.774;12.918;2023-04-24T20:29:38;8.80;20.00
7014;DHT22;3547;50.774;12.918;2023-04-24T20:32:05;8.70;19.00
7014;DHT22;3547;50.774;12.918;2023-04-24T20:37:09;8.70;19.70
7014;DHT22;3547;50.774;12.918;2023-04-24T20:39:35;8.60;17.20
7014;DHT22;3547;50.774;12.918;2023-04-24T20:50:35;8.40;20.40
7014;DHT22;3547;50.774;12.918;2023-04-24T20:58:15;8.40;21.00
7014;DHT22;3547;50.774;12.918;2023-04-24T21:03:24;8.40;21.90
7014;DHT22;3547;50.774;12.918;2023-04-24T21:05:50;8.40;21.80
7014;DHT22;3547;50.774;12.918;2023-04-24T21:08:16;8.50;21.10
7014;DHT22;3547;50.774;12.918;2023-04-24T21:10:42;8.40;22.00
7014;DHT22;3547;50.774;12.918;2023-04-24T21:13:08;8.50;21.70
7014;DHT22;3547;50.774;12.918;2023-04-24T21:15:34;8.50;22.90
7014;DHT22;3547;50.774;12.918;2023-04-24T21:18:04;8.40;21.80
7014;DHT22;3547;50.774;12.918;2023-04-24T21:20:30;8.40;21.50
7014;DHT22;3547;50.774;12.918;2023-04-24T21:22:57;8.50;22.50
7014;DHT22;3547;50.774;12.918;2023-04-24T21:25:30;8.50;22.00
7014;DHT22;3547;50.774;12.918;2023-04-24T21:28:01;8.50;21.10
7014;DHT22;3547;50.774;12.918;2023-04-24T21:30:28;8.40;21.50
7014;DHT22;3547;50.774;12.918;2023-04-24T21:32:56;8.30;21.70
7014;DHT22;3547;50.774;12.918;2023-04-24T21:35:22;8.40;21.30
7014;DHT22;3547;50.774;12.918;2023-04-24T21:37:48;8.40;21.60
7014;DHT22;3547;50.774;12.918;2023-04-24T21:40:14;8.30;24.00
7014;DHT22;3547;50.774;12.918;2023-04-24T21:42:42;8.30;21.10
7014;DHT22;3547;50.774;12.918;2023-04-24T21:45:08;8.20;21.00
7014;DHT22;3547;50.774;12.918;2023-04-24T21:47:35;8.30;21.80
7014;DHT22;3547;50.774;12.918;2023-04-24T21:50:19;8.20;21.30
7014;DHT22;3547;50.774;12.918;2023-04-24T21:52:46;8.20;21.70
7014;DHT22;3547;50.774;12.918;2023-04-24T21:55:12;8.10;21.70
7014;DHT22;3547;50.774;12.918;2023-04-24T21:57:38;8.10;21.80
7014;DHT22;3547;50.774;12.918;2023-04-24T22:00:05;8.10;22.00
7014;DHT22;3547;50.774;12.918;2023-04-24T22:02:33;7.90;22.10
7014;DHT22;3547;50.774;12.918;2023-04-24T22:05:00;7.80;21.60
7014;DHT22;3547;50.774;12.918;2023-04-24T22:07:29;7.80;21.90
7014;DHT22;3547;50.774;12.918;2023-04-24T22:09:55;7.80;22.70
7014;DHT22;3547;50.774;12.918;2023-04-24T22:12:21;7.70;22.90
7014;DHT22;3547;50.774;12.918;2023-04-24T22:14:48;7.80;22.80
7014;DHT22;3547;50.774;12.918;2023-04-24T22:17:19;7.80;23.80
7014;DHT22;3547;50.774;12.918;2023-04-24T22:19:45;7.90;23.20
7014;DHT22;3547;50.774;12.918;2023-04-24T22:22:12;7.90;23.70
7014;DHT22;3547;50.774;12.918;2023-04-24T22:27:42;7.90;24.30
7014;DHT22;3547;50.774;12.918;2023-04-24T22:30:08;7.90;24.10
7014;DHT22;3547;50.774;12.918;2023-04-24T22:32:35;7.80;23.90
7014;DHT22;3547;50.774;12.918;2023-04-24T22:35:02;7.90;24.50
7014;DHT22;3547;50.774;12.918;2023-04-24T22:37:28;7.90;24.70
7014;DHT22;3547;50.774;12.918;2023-04-24T22:39:54;7.80;24.90
7014;DHT22;3547;50.774;12.918;2023-04-24T22:42:31;7.80;25.30
7014;DHT22;3547;50.774;12.918;2023-04-24T22:44:57;7.80;27.90
7014;DHT22;3547;50.774;12.918;2023-04-24T22:47:23;7.90;26.20
7014;DHT22;3547;50.774;12.918;2023-04-24T22:50:15;7.80;25.70
7014;DHT22;3547;50.774;12.918;2023-04-24T22:52:41;7.90;24.30
7014;DHT22;3547;50.774;12.918;2023-04-24T22:55:09;7.80;24.90
7014;DHT22;3547;50.774;12.918;2023-04-24T22:57:35;7.80;23.30
7014;DHT22;3547;50.774;12.918;2023-04-24T23:00:03;7.80;24.40
7014;DHT22;3547;50.774;12.918;2023-04-24T23:02:34;7.60;23.10
7014;DHT22;3547;50.774;12.918;2023-04-24T23:05:00;7.50;23.90